Time;durP1;ratioP1;P1;durP2;ratioP2;P2;SDS_P1;SDS_P2;PMS_P1;PMS_P2;Temp;Humidity;BMP_temperature;BMP_pressure;BME280_temperature;BME280_humidity;BME280_pressure;Samples;Min_cycle;Max_cycle;Signal;HPM_P1;HPM_P2
2023/01/11 00:01:01;;;;;;;3.60;1.90;;;6.60;23.00;;;;;;5140039;27;20469;-64
2023/01/11 00:03:30;;;;;;;3.60;1.90;;;6.60;1.00;;;;;;5140420;27;20462;-64
2023/01/11 00:05:58;;;;;;;2.30;1.60;;;6.60;1.00;;;;;;5140453;27;20475;-64
2023/01/11 00:08:27;;;;;;;2.70;1.97;;;6.70;99.90;;;;;;5140250;27;20953;-63
2023/01/11 00:10:55;;;;;;;4.47;1.90;;;6.70;95.60;;;;;;5140529;27;20549;-64
2023/01/11 00:13:22;;;;;;;2.00;1.40;;;6.70;1.00;;;;;;5139714;27;20891;-63
2023/01/11 00:15:51;;;;;;;2.03;1.40;;;6.70;99.90;;;;;;5140155;27;20465;-64
2023/01/11 00:18:18;;;;;;;2.77;1.83;;;6.80;93.00;;;;;;5140226;27;20557;-63
2023/01/11 00:20:45;;;;;;;2.27;1.63;;;6.80;1.00;;;;;;5139609;27;20465;-64
2023/01/11 00:23:12;;;;;;;3.07;1.90;;;6.80;1.00;;;;;;5139806;27;20463;-64
2023/01/11 00:25:40;;;;;;;2.93;1.57;;;6.90;1.00;;;;;;5140090;27;20569;-64
2023/01/11 00:28:07;;;;;;;2.03;1.30;;;6.90;99.90;;;;;;5139721;27;20490;-65
2023/01/11 00:30:35;;;;;;;3.77;1.53;;;7.00;99.90;;;;;;5139649;27;20489;-64
2023/01/11 00:33:03;;;;;;;2.90;1.50;;;7.00;99.90;;;;;;5139888;27;20458;-64
2023/01/11 00:35:32;;;;;;;2.23;1.60;;;7.00;99.90;;;;;;5139523;27;20429;-65
2023/01/11 00:37:59;;;;;;;2.00;1.47;;;7.10;99.90;;;;;;5139022;27;20874;-65
2023/01/11 00:40:26;;;;;;;2.27;1.73;;;7.10;99.90;;;;;;5140030;27;20463;-63
2023/01/11 00:48:24;;;;;;;2.30;1.50;;;7.10;15.30;;;;;;5139144;27;20525;-64
2023/01/11 00:50:55;;;;;;;1.90;1.47;;;7.10;1.00;;;;;;5139197;27;20890;-65
2023/01/11 00:53:22;;;;;;;2.40;1.43;;;7.20;1.00;;;;;;5139058;27;20462;-64
2023/01/11 00:55:49;;;;;;;2.00;1.50;;;7.20;99.90;;;;;;5139264;27;20497;-65
2023/01/11 00:58:17;;;;;;;2.27;1.20;;;7.20;1.00;;;;;;5139171;27;20458;-65
2023/01/11 01:00:44;;;;;;;2.50;1.40;;;7.20;99.90;;;;;;5139157;27;20458;-65
2023/01/11 01:03:11;;;;;;;2.10;1.37;;;7.30;1.00;;;;;;5139071;27;20908;-64
2023/01/11 01:05:40;;;;;;;2.37;1.30;;;7.30;99.90;;;;;;5139057;27;20458;-64
2023/01/11 01:08:07;;;;;;;1.80;1.30;;;7.30;1.00;;;;;;5138301;27;20762;-65
2023/01/11 01:10:34;;;;;;;2.20;1.40;;;7.30;35.00;;;;;;5139159;27;20463;-64
2023/01/11 01:15:46;;;;;;;2.00;1.70;;;7.40;99.90;;;;;;5138793;27;20462;-64
2023/01/11 01:18:13;;;;;;;1.83;1.10;;;7.40;99.90;;;;;;5139249;27;20473;-65
2023/01/11 01:20:41;;;;;;;1.80;1.30;;;7.30;99.90;;;;;;5138339;27;20458;-65
2023/01/11 01:23:08;;;;;;;2.17;1.43;;;7.30;1.00;;;;;;5138239;27;20565;-64
2023/01/11 01:25:37;;;;;;;2.67;1.50;;;7.30;1.00;;;;;;5138694;27;20429;-64
2023/01/11 01:28:04;;;;;;;1.90;1.40;;;7.30;99.90;;;;;;5139105;27;20969;-63
2023/01/11 01:30:32;;;;;;;1.90;1.37;;;7.30;99.90;;;;;;5136947;27;20486;-64
2023/01/11 01:32:59;;;;;;;3.30;1.30;;;7.30;99.90;;;;;;5138304;27;20463;-64
2023/01/11 01:35:26;;;;;;;2.00;1.30;;;7.30;99.90;;;;;;5138558;27;20762;-65
2023/01/11 01:37:55;;;;;;;3.33;1.57;;;7.30;99.90;;;;;;5138595;27;20546;-64
2023/01/11 01:40:22;;;;;;;2.50;1.50;;;7.40;99.90;;;;;;5138790;27;20902;-64
2023/01/11 01:42:54;;;;;;;2.43;1.40;;;7.40;1.00;;;;;;5138184;27;20459;-65
2023/01/11 01:45:24;;;;;;;2.43;1.50;;;7.40;1.00;;;;;;5138535;27;20884;-63
2023/01/11 01:47:56;;;;;;;3.20;1.43;;;7.40;99.90;;;;;;5138250;27;20487;-64
2023/01/11 01:50:27;;;;;;;2.23;1.47;;;7.40;99.90;;;;;;5138398;27;20458;-64
2023/01/11 01:52:59;;;;;;;2.80;1.93;;;7.30;99.90;;;;;;5135092;28;20890;-64
2023/01/11 01:55:29;;;;;;;2.10;1.23;;;7.30;1.00;;;;;;5137815;28;20459;-63
2023/01/11 01:57:58;;;;;;;2.13;1.67;;;7.40;99.90;;;;;;5136944;28;20425;-64
2023/01/11 02:00:25;;;;;;;2.37;1.60;;;7.40;99.90;;;;;;5138345;28;20758;-64
2023/01/11 02:02:53;;;;;;;3.07;1.57;;;7.40;99.90;;;;;;5137857;28;20459;-64
2023/01/11 02:05:20;;;;;;;2.97;2.13;;;7.40;1.00;;;;;;5138121;28;20459;-64
2023/01/11 02:07:50;;;;;;;2.27;1.70;;;7.40;99.90;;;;;;5138063;28;20497;-64
2023/01/11 02:10:21;;;;;;;2.13;1.63;;;7.50;99.90;;;;;;5137821;28;20505;-64
2023/01/11 02:12:51;;;;;;;2.07;1.60;;;7.50;99.90;;;;;;5138227;28;20775;-64
2023/01/11 02:15:21;;;;;;;2.13;1.53;;;7.50;99.90;;;;;;5138233;28;20433;-65
2023/01/11 02:17:48;;;;;;;2.50;1.40;;;7.50;99.90;;;;;;5138221;28;20458;-63
2023/01/11 02:20:39;;;;;;;2.70;1.70;;;7.60;1.00;;;;;;5140317;27;20458;-63
2023/01/11 02:23:44;;;;;;;2.73;1.60;;;7.60;99.90;;;;;;5142213;27;20462;-63
2023/01/11 02:26:58;;;;;;;2.40;1.50;;;7.60;1.00;;;;;;5142360;27;20454;-62
2023/01/11 02:29:37;;;;;;;2.60;1.60;;;7.60;99.90;;;;;;5121834;27;20551;-62
2023/01/11 02:32:13;;;;;;;2.17;1.70;;;7.60;1.00;;;;;;5142601;27;20761;-63
2023/01/11 02:34:46;;;;;;;2.20;1.60;;;7.60;99.90;;;;;;5142279;27;20908;-62
2023/01/11 02:37:27;;;;;;;2.13;1.43;;;7.60;99.90;;;;;;5142328;27;20856;-63
2023/01/11 02:40:00;;;;;;;2.17;1.50;;;7.60;99.90;;;;;;5142301;27;20455;-61
2023/01/11 02:45:39;;;;;;;1.90;1.40;;;7.60;99.90;;;;;;5141545;27;20429;-62
2023/01/11 02:48:16;;;;;;;2.20;1.40;;;7.50;99.90;;;;;;5141715;27;20486;-63
2023/01/11 02:50:50;;;;;;;2.13;1.57;;;7.50;99.90;;;;;;5141226;27;20458;-62
2023/01/11 02:53:23;;;;;;;3.10;1.60;;;7.60;99.90;;;;;;5141994;27;20767;-62
2023/01/11 02:55:55;;;;;;;2.00;1.40;;;7.50;99.90;;;;;;5141522;27;20470;-62
2023/01/11 02:58:27;;;;;;;3.13;1.50;;;7.60;99.90;;;;;;5142055;27;20458;-63
2023/01/11 03:00:57;;;;;;;2.70;1.70;;;7.60;99.90;;;;;;5141704;27;20437;-63
2023/01/11 03:03:26;;;;;;;2.20;1.40;;;7.60;99.90;;;;;;5141700;27;20466;-62
2023/01/11 03:05:57;;;;;;;2.23;1.43;;;7.60;99.90;;;;;;5141953;27;20863;-63
2023/01/11 03:08:43;;;;;;;2.10;1.50;;;7.60;99.90;;;;;;5141767;27;20487;-63
2023/01/11 03:11:14;;;;;;;2.00;1.40;;;7.60;99.90;;;;;;5141268;27;20462;-61
2023/01/11 03:14:00;;;;;;;3.03;1.50;;;7.60;99.90;;;;;;5141428;27;20511;-62
2023/01/11 03:16:34;;;;;;;2.13;1.53;;;7.60;99.90;;;;;;5141591;27;20541;-62
2023/01/11 03:19:15;;;;;;;1.80;1.30;;;7.60;99.90;;;;;;5141049;27;20454;-62
2023/01/11 03:21:50;;;;;;;2.10;1.60;;;7.60;99.90;;;;;;5141566;27;20480;-62
2023/01/11 03:24:30;;;;;;;2.23;1.53;;;7.60;99.90;;;;;;5141630;27;20455;-62
2023/01/11 03:27:12;;;;;;;3.40;2.00;;;7.60;99.90;;;;;;5140915;27;20470;-62
2023/01/11 03:29:43;;;;;;;1.90;1.37;;;7.70;99.90;;;;;;5140503;27;20499;-62
2023/01/11 03:32:28;;;;;;;2.07;1.47;;;7.70;99.90;;;;;;5140347;27;20469;-61
2023/01/11 03:35:06;;;;;;;2.00;1.40;;;7.80;99.90;;;;;;5140868;27;20466;-63
2023/01/11 03:37:38;;;;;;;2.00;1.50;;;7.70;99.90;;;;;;5140632;27;20455;-64
2023/01/11 03:40:10;;;;;;;1.97;1.40;;;7.80;99.90;;;;;;5140932;27;20739;-66
2023/01/11 03:43:09;;;;;;;3.60;1.57;;;7.80;99.90;;;;;;5141155;27;20455;-63
2023/01/11 03:45:33;;;;;;;2.00;1.30;;;7.80;99.90;;;;;;5138183;27;20471;-62
2023/01/11 03:48:04;;;;;;;1.90;1.20;;;7.80;99.90;;;;;;5137290;27;20487;-62
2023/01/11 03:50:33;;;;;;;2.30;1.50;;;7.80;99.90;;;;;;5140759;27;20880;-62
2023/01/11 03:53:03;;;;;;;2.10;1.50;;;7.80;99.90;;;;;;5140156;27;20753;-62
2023/01/11 03:55:37;;;;;;;5.00;1.30;;;7.90;99.90;;;;;;5140490;27;20463;-63
2023/01/11 03:58:05;;;;;;;2.60;2.00;;;7.90;99.90;;;;;;5140737;27;20902;-62
2023/01/11 04:00:33;;;;;;;2.27;1.23;;;7.90;99.90;;;;;;5140634;27;20465;-63
2023/01/11 04:03:02;;;;;;;2.20;1.20;;;7.90;99.90;;;;;;5140271;27;20463;-62
2023/01/11 04:05:29;;;;;;;2.13;1.30;;;7.90;99.90;;;;;;5139912;27;20467;-62
2023/01/11 04:07:56;;;;;;;2.00;1.40;;;7.90;99.90;;;;;;5138505;27;20462;-62
2023/01/11 04:10:23;;;;;;;2.43;1.40;;;7.90;99.90;;;;;;5138938;27;20459;-63
2023/01/11 04:12:50;;;;;;;1.97;1.30;;;7.90;99.90;;;;;;5138607;27;20562;-61
2023/01/11 04:15:17;;;;;;;1.93;1.37;;;8.00;99.90;;;;;;5138512;27;20471;-61
2023/01/11 04:17:45;;;;;;;2.10;1.70;;;8.00;99.90;;;;;;5138749;27;20474;-61
2023/01/11 04:20:13;;;;;;;2.00;1.40;;;7.90;99.90;;;;;;5138849;27;20747;-61
2023/01/11 04:22:40;;;;;;;2.17;1.60;;;8.00;99.90;;;;;;5139606;27;20458;-62
2023/01/11 04:25:08;;;;;;;5.90;1.20;;;8.00;99.90;;;;;;5140104;27;20465;-62
2023/01/11 04:27:36;;;;;;;3.20;1.37;;;8.00;99.90;;;;;;5140547;27;20960;-62
2023/01/11 04:30:04;;;;;;;2.00;1.40;;;8.00;99.90;;;;;;5139207;27;20473;-62
2023/01/11 04:32:31;;;;;;;2.27;1.33;;;8.00;99.90;;;;;;5140263;27;20437;-62
2023/01/11 04:35:00;;;;;;;1.80;1.40;;;8.10;99.90;;;;;;5139374;27;20455;-62
2023/01/11 04:37:28;;;;;;;1.97;1.47;;;8.10;99.90;;;;;;5139642;27;20459;-62
2023/01/11 04:39:56;;;;;;;2.40;1.40;;;8.10;99.90;;;;;;5140082;27;20760;-62
2023/01/11 04:42:23;;;;;;;1.90;1.40;;;8.20;99.90;;;;;;5139514;27;20470;-62
2023/01/11 04:44:51;;;;;;;2.90;1.40;;;8.20;99.90;;;;;;5139692;27;20489;-62
2023/01/11 04:47:20;;;;;;;2.10;1.33;;;8.20;99.90;;;;;;5139513;27;20557;-62
2023/01/11 04:49:48;;;;;;;2.10;1.60;;;8.30;99.90;;;;;;5139348;27;20506;-61
2023/01/11 04:52:17;;;;;;;1.80;1.40;;;8.30;99.90;;;;;;5140050;27;20454;-62
2023/01/11 04:54:47;;;;;;;2.30;1.60;;;8.30;99.90;;;;;;5139542;27;20459;-61
2023/01/11 04:57:16;;;;;;;2.00;1.40;;;8.30;99.90;;;;;;5139143;27;20462;-62
2023/01/11 04:59:45;;;;;;;2.37;2.00;;;8.40;99.90;;;;;;5136360;27;20784;-62
2023/01/11 05:02:12;;;;;;;1.90;1.40;;;8.40;99.90;;;;;;5139408;27;20458;-61
2023/01/11 05:04:40;;;;;;;2.20;1.50;;;8.40;99.90;;;;;;5138324;27;20450;-62
2023/01/11 05:07:07;;;;;;;2.20;1.57;;;8.40;99.90;;;;;;5138035;27;20541;-62
2023/01/11 05:09:35;;;;;;;2.33;1.80;;;8.50;99.90;;;;;;5137417;27;20853;-61
2023/01/11 05:12:04;;;;;;;2.10;1.40;;;8.50;99.90;;;;;;5138720;27;20458;-61
2023/01/11 05:14:31;;;;;;;2.40;1.67;;;8.50;99.90;;;;;;5139257;27;20478;-61
2023/01/11 05:16:58;;;;;;;1.80;1.30;;;8.50;99.90;;;;;;5138041;27;20436;-62
2023/01/11 05:19:26;;;;;;;2.13;1.80;;;8.60;99.90;;;;;;5138285;27;20455;-62
2023/01/11 05:21:53;;;;;;;2.03;1.40;;;8.60;99.90;;;;;;5138789;27;20468;-62
2023/01/11 05:24:20;;;;;;;2.50;1.50;;;8.60;99.90;;;;;;5138946;27;20891;-62
2023/01/11 05:26:49;;;;;;;2.40;1.80;;;8.70;99.90;;;;;;5138804;27;20469;-62
2023/01/11 05:29:19;;;;;;;4.00;2.07;;;8.70;99.90;;;;;;5137877;27;20515;-62
2023/01/11 05:31:46;;;;;;;2.30;1.60;;;8.80;99.90;;;;;;5138466;27;20502;-62
2023/01/11 05:34:14;;;;;;;2.33;1.70;;;8.80;99.90;;;;;;5139073;27;20459;-63
2023/01/11 05:36:42;;;;;;;2.30;1.93;;;8.80;99.90;;;;;;5138586;27;20458;-63
2023/01/11 05:39:10;;;;;;;2.13;1.70;;;8.80;99.90;;;;;;5138984;27;20886;-63
2023/01/11 05:41:38;;;;;;;2.37;1.90;;;8.90;99.90;;;;;;5139021;27;20464;-63
2023/01/11 05:46:52;;;;;;;2.57;2.00;;;8.90;99.90;;;;;;5138806;27;20515;-62
2023/01/11 05:49:19;;;;;;;3.93;1.83;;;8.90;99.90;;;;;;5138228;27;20495;-63
2023/01/11 05:51:46;;;;;;;3.33;2.43;;;8.90;99.90;;;;;;5138350;28;20470;-63
2023/01/11 05:54:14;;;;;;;3.83;3.40;;;9.00;99.90;;;;;;5138308;27;20455;-62
2023/01/11 05:56:42;;;;;;;3.00;2.20;;;9.00;99.90;;;;;;5136959;27;20462;-63
2023/01/11 05:59:09;;;;;;;2.63;2.23;;;9.00;99.90;;;;;;5137877;28;20454;-63
2023/01/11 06:01:37;;;;;;;3.27;2.50;;;9.00;99.90;;;;;;5138497;28;20467;-63
2023/01/11 06:04:07;;;;;;;3.63;2.50;;;9.10;99.90;;;;;;5138538;28;20461;-63
2023/01/11 06:06:34;;;;;;;3.10;2.17;;;9.10;99.90;;;;;;5138327;28;20760;-62
2023/01/11 06:09:01;;;;;;;5.47;3.20;;;9.10;99.90;;;;;;5137858;28;20500;-63
2023/01/11 06:11:28;;;;;;;13.70;7.43;;;9.20;99.90;;;;;;5137354;28;20911;-62
2023/01/11 06:13:55;;;;;;;5.87;3.77;;;9.20;99.90;;;;;;5137901;28;20469;-62
2023/01/11 06:16:22;;;;;;;5.30;3.40;;;9.20;99.90;;;;;;5137851;27;20867;-62
2023/01/11 06:18:51;;;;;;;3.20;2.30;;;9.20;99.90;;;;;;5137747;28;20432;-61
2023/01/11 06:21:20;;;;;;;4.20;3.17;;;9.30;99.90;;;;;;5137536;28;20454;-62
2023/01/11 06:23:50;;;;;;;10.30;6.83;;;9.30;99.90;;;;;;5138393;28;20474;-62
2023/01/11 06:26:20;;;;;;;4.77;3.37;;;9.30;99.90;;;;;;5136834;27;20477;-62
2023/01/11 06:28:48;;;;;;;4.13;3.17;;;9.30;99.90;;;;;;5135634;28;20485;-62
2023/01/11 06:31:16;;;;;;;2.50;2.20;;;9.30;99.90;;;;;;5137423;28;20790;-63
2023/01/11 06:33:43;;;;;;;2.80;2.00;;;9.30;99.90;;;;;;5138685;28;20466;-63
2023/01/11 06:36:12;;;;;;;2.53;1.90;;;9.40;99.90;;;;;;5135014;28;20470;-63
2023/01/11 06:38:41;;;;;;;3.47;2.10;;;9.40;99.90;;;;;;5137825;28;20737;-63
2023/01/11 06:41:09;;;;;;;6.93;4.57;;;9.40;99.90;;;;;;5138356;28;20883;-63
2023/01/11 06:43:40;;;;;;;3.70;2.40;;;9.40;99.90;;;;;;5138454;28;20462;-64
2023/01/11 06:46:11;;;;;;;3.30;2.00;;;9.40;99.90;;;;;;5138751;27;20519;-63
2023/01/11 06:48:38;;;;;;;2.80;1.80;;;9.50;99.90;;;;;;5137290;28;20454;-63
2023/01/11 06:51:05;;;;;;;6.00;3.97;;;9.50;99.90;;;;;;5135643;28;20469;-63
2023/01/11 06:53:32;;;;;;;3.97;2.90;;;9.50;99.90;;;;;;5136518;27;20454;-64
2023/01/11 06:56:01;;;;;;;2.53;2.00;;;9.50;99.90;;;;;;5136455;27;20429;-64
2023/01/11 06:58:28;;;;;;;4.77;3.00;;;9.50;99.90;;;;;;5130692;27;20467;-65
2023/01/11 07:00:56;;;;;;;2.93;2.27;;;9.60;99.90;;;;;;5127528;28;20462;-64
2023/01/11 07:03:24;;;;;;;2.23;1.80;;;9.60;99.90;;;;;;5136424;28;20466;-62
2023/01/11 07:05:53;;;;;;;2.77;2.47;;;9.60;99.90;;;;;;5137020;27;20465;-64
2023/01/11 07:08:20;;;;;;;2.70;2.20;;;9.70;99.90;;;;;;5139804;27;20462;-64
2023/01/11 07:10:47;;;;;;;4.07;2.10;;;9.60;99.90;;;;;;5140746;27;20581;-64
2023/01/11 07:13:16;;;;;;;2.60;2.10;;;9.70;99.90;;;;;;5141081;27;20466;-62
2023/01/11 07:15:44;;;;;;;3.20;2.70;;;9.70;99.90;;;;;;5141338;27;20879;-65
2023/01/11 07:18:11;;;;;;;4.73;3.43;;;9.70;99.90;;;;;;5141825;27;20477;-64
2023/01/11 07:20:38;;;;;;;2.30;2.00;;;9.80;99.90;;;;;;5141067;27;20465;-64
2023/01/11 07:23:06;;;;;;;2.47;2.10;;;9.70;99.90;;;;;;5140520;27;20747;-62
2023/01/11 07:25:34;;;;;;;3.77;2.03;;;9.80;99.90;;;;;;5139951;27;20470;-63
2023/01/11 07:28:02;;;;;;;2.53;2.27;;;9.80;99.90;;;;;;5139814;27;20469;-62
2023/01/11 07:30:32;;;;;;;2.53;2.33;;;9.80;99.90;;;;;;5138247;27;20495;-64
2023/01/11 07:33:00;;;;;;;2.60;2.40;;;9.80;99.90;;;;;;5139508;27;20512;-64
2023/01/11 07:35:28;;;;;;;2.40;1.90;;;9.80;99.90;;;;;;5139626;27;20549;-64
2023/01/11 07:37:55;;;;;;;2.30;1.87;;;9.80;99.90;;;;;;5140639;27;20463;-64
2023/01/11 07:40:22;;;;;;;2.60;2.20;;;9.90;99.90;;;;;;5140257;27;20433;-63
2023/01/11 07:45:37;;;;;;;2.70;2.47;;;10.00;99.90;;;;;;5140911;27;20466;-63
2023/01/11 07:48:07;;;;;;;9.97;8.97;;;10.10;99.90;;;;;;5140653;27;20462;-63
2023/01/11 07:50:34;;;;;;;14.10;11.63;;;10.10;99.90;;;;;;5139845;27;20465;-63
2023/01/11 07:53:01;;;;;;;14.43;12.90;;;10.20;99.90;;;;;;5140575;27;20458;-63
2023/01/11 07:55:28;;;;;;;12.57;11.37;;;10.30;99.90;;;;;;5141153;27;20524;-63
2023/01/11 07:57:56;;;;;;;9.73;8.83;;;10.30;99.90;;;;;;5139287;27;21063;-65
2023/01/11 08:00:24;;;;;;;6.73;6.13;;;10.30;99.90;;;;;;5136578;27;20455;-65
2023/01/11 08:02:53;;;;;;;12.63;11.43;;;10.30;99.90;;;;;;5139375;27;20450;-64
2023/01/11 08:05:20;;;;;;;16.70;15.03;;;10.30;99.90;;;;;;5140020;27;20875;-64
2023/01/11 08:07:48;;;;;;;14.53;12.97;;;10.30;99.90;;;;;;5139827;27;20462;-64
2023/01/11 08:10:16;;;;;;;9.67;8.67;;;10.30;99.90;;;;;;5140033;27;20578;-62
2023/01/11 08:15:28;;;;;;;11.07;10.00;;;10.30;99.90;;;;;;5139816;27;20431;-63
2023/01/11 08:17:57;;;;;;;18.63;16.93;;;10.30;99.90;;;;;;5139478;27;20469;-64
2023/01/11 08:20:25;;;;;;;5.20;4.70;;;10.30;99.90;;;;;;5140432;27;20528;-64
2023/01/11 08:22:53;;;;;;;11.47;10.27;;;10.40;99.90;;;;;;5139135;27;20737;-66
2023/01/11 08:25:20;;;;;;;23.90;21.30;;;10.40;99.90;;;;;;5139549;27;20758;-67
2023/01/11 08:27:47;;;;;;;17.07;15.23;;;10.40;99.90;;;;;;5139406;27;20459;-66
2023/01/11 08:30:15;;;;;;;14.00;11.97;;;10.40;99.90;;;;;;5137244;27;20494;-66
2023/01/11 08:32:42;;;;;;;11.60;9.00;;;10.40;99.90;;;;;;5138043;27;20465;-66
2023/01/11 08:35:10;;;;;;;7.40;6.70;;;10.40;99.90;;;;;;5138610;27;20459;-66
2023/01/11 08:37:37;;;;;;;14.80;12.40;;;10.30;99.90;;;;;;5137507;27;20455;-66
2023/01/11 08:40:06;;;;;;;8.43;7.00;;;10.30;99.90;;;;;;5137726;27;20454;-66
2023/01/11 08:42:33;;;;;;;8.43;7.53;;;10.30;99.90;;;;;;5137870;27;20465;-65
2023/01/11 08:45:00;;;;;;;7.70;6.93;;;10.30;99.90;;;;;;5138353;27;20902;-66
2023/01/11 08:47:27;;;;;;;7.30;6.70;;;10.30;99.90;;;;;;5137596;27;20451;-68
2023/01/11 08:49:54;;;;;;;13.03;7.60;;;10.30;99.90;;;;;;5136676;27;20660;-67
2023/01/11 08:52:23;;;;;;;7.93;6.97;;;10.30;99.90;;;;;;5135389;27;20462;-68
2023/01/11 08:54:50;;;;;;;9.17;7.47;;;10.30;99.90;;;;;;5136065;27;20458;-67
2023/01/11 08:57:17;;;;;;;10.93;8.30;;;10.30;99.90;;;;;;5136163;27;20756;-66
2023/01/11 08:59:44;;;;;;;11.40;9.43;;;10.30;99.90;;;;;;5136674;27;20462;-65
2023/01/11 09:02:12;;;;;;;10.00;8.70;;;10.40;99.90;;;;;;5136968;27;20440;-66
2023/01/11 09:04:40;;;;;;;11.17;10.17;;;10.30;99.90;;;;;;5119179;27;20869;-72
2023/01/11 09:07:07;;;;;;;10.80;9.70;;;10.30;99.90;;;;;;5139231;27;20463;-66
2023/01/11 09:09:35;;;;;;;11.27;9.60;;;10.30;99.90;;;;;;5139669;27;20433;-72
2023/01/11 09:12:03;;;;;;;13.70;10.10;;;10.30;99.90;;;;;;5140517;27;20458;-70
2023/01/11 09:14:31;;;;;;;14.20;9.57;;;10.30;99.90;;;;;;5139782;27;20450;-67
2023/01/11 09:16:58;;;;;;;7.93;6.93;;;10.30;99.90;;;;;;5138613;27;20465;-67
2023/01/11 09:19:25;;;;;;;6.37;5.73;;;10.20;99.90;;;;;;5138336;27;20750;-66
2023/01/11 09:21:55;;;;;;;8.40;6.23;;;10.10;99.90;;;;;;5138688;27;20451;-66
2023/01/11 09:24:22;;;;;;;6.80;5.80;;;10.00;99.90;;;;;;5138446;27;20458;-66
2023/01/11 09:26:51;;;;;;;7.00;4.70;;;9.90;99.90;;;;;;5138307;27;20462;-69
2023/01/11 09:29:18;;;;;;;5.80;4.07;;;9.80;99.90;;;;;;5136656;27;20478;-70
2023/01/11 09:31:46;;;;;;;6.10;3.50;;;9.70;99.90;;;;;;5138220;27;20494;-68
2023/01/11 09:34:13;;;;;;;4.83;3.13;;;9.70;99.90;;;;;;5138362;27;20462;-67
2023/01/11 09:36:40;;;;;;;6.83;3.53;;;9.60;99.90;;;;;;5136280;27;20887;-67
2023/01/11 09:39:13;;;;;;;6.57;3.60;;;9.60;99.90;;;;;;5137588;27;20461;-66
2023/01/11 09:42:19;;;;;;;9.13;4.53;;;9.60;99.90;;;;;;5138199;27;20459;-65
2023/01/11 09:44:52;;;;;;;10.73;4.93;;;9.50;99.90;;;;;;5133027;27;20519;-66
2023/01/11 09:47:31;;;;;;;6.00;4.70;;;9.50;99.90;;;;;;5138181;27;20462;-66
2023/01/11 09:50:02;;;;;;;9.57;4.80;;;9.40;99.90;;;;;;5138068;27;20773;-65
2023/01/11 09:52:35;;;;;;;8.17;5.13;;;9.50;99.90;;;;;;5137851;28;20458;-65
2023/01/11 09:55:03;;;;;;;10.47;4.60;;;9.50;99.90;;;;;;5137797;27;21035;-65
2023/01/11 09:57:48;;;;;;;7.40;4.67;;;9.50;99.90;;;;;;5135832;28;20465;-66
2023/01/11 10:00:26;;;;;;;12.40;5.97;;;9.50;99.90;;;;;;5136236;28;20455;-67
2023/01/11 10:03:10;;;;;;;12.17;6.20;;;9.50;99.90;;;;;;5133258;28;20474;-67
2023/01/11 10:05:50;;;;;;;8.53;6.00;;;9.50;99.90;;;;;;5135723;27;20874;-66
2023/01/11 10:08:37;;;;;;;6.90;5.97;;;9.50;99.90;;;;;;5134654;28;20462;-66
2023/01/11 10:11:19;;;;;;;26.70;7.40;;;9.50;99.90;;;;;;5135604;28;20478;-68
2023/01/11 10:13:54;;;;;;;11.33;6.23;;;9.60;99.90;;;;;;5137928;27;20466;-68
2023/01/11 10:16:37;;;;;;;14.83;6.83;;;9.70;99.90;;;;;;5137804;27;20458;-67
2023/01/11 10:19:13;;;;;;;16.83;6.20;;;9.70;99.90;;;;;;5137442;27;20516;-67
2023/01/11 10:21:46;;;;;;;15.77;8.50;;;9.80;99.90;;;;;;5137762;27;20458;-68
2023/01/11 10:24:20;;;;;;;12.40;5.37;;;9.80;99.90;;;;;;5138057;27;20545;-68
2023/01/11 10:26:50;;;;;;;12.10;4.80;;;9.70;99.90;;;;;;5135495;27;20955;-68
2023/01/11 10:29:44;;;;;;;15.93;5.40;;;9.60;99.90;;;;;;5135441;27;20490;-68
2023/01/11 10:32:51;;;;;;;12.57;5.30;;;9.60;99.90;;;;;;5136305;27;20458;-69
2023/01/11 10:35:44;;;;;;;68.07;35.17;;;9.50;99.90;;;;;;5135842;27;20459;-68
2023/01/11 10:38:37;;;;;;;50.30;28.77;;;9.40;99.90;;;;;;5136111;27;20481;-68
2023/01/11 10:41:18;;;;;;;46.87;26.53;;;9.40;99.90;;;;;;5137212;27;20747;-68
2023/01/11 10:43:53;;;;;;;34.00;17.87;;;9.50;99.90;;;;;;5141704;27;20473;-68
2023/01/11 10:46:23;;;;;;;33.80;20.27;;;9.50;99.90;;;;;;5141498;27;20492;-67
2023/01/11 10:49:01;;;;;;;26.13;16.27;;;9.60;99.90;;;;;;5140713;27;20441;-67
2023/01/11 10:51:33;;;;;;;26.83;13.93;;;9.50;99.90;;;;;;5138908;27;20486;-67
2023/01/11 10:54:11;;;;;;;16.80;10.93;;;9.60;99.90;;;;;;5138597;27;20829;-67
2023/01/11 10:56:55;;;;;;;25.93;13.80;;;9.60;99.90;;;;;;5120411;27;21283;-67
2023/01/11 10:59:52;;;;;;;17.13;11.87;;;9.70;99.90;;;;;;5138115;27;20641;-67
2023/01/11 11:02:37;;;;;;;14.87;8.00;;;9.70;99.90;;;;;;5139415;27;20466;-67
2023/01/11 11:05:22;;;;;;;22.67;13.77;;;9.70;99.90;;;;;;5139830;27;20454;-67
2023/01/11 11:07:55;;;;;;;18.60;7.80;;;9.60;99.90;;;;;;5140959;27;20459;-67
2023/01/11 11:10:27;;;;;;;15.10;7.20;;;9.70;99.90;;;;;;5141223;27;20522;-66
2023/01/11 11:13:00;;;;;;;21.90;10.30;;;9.60;99.90;;;;;;5140338;27;20465;-66
2023/01/11 11:15:34;;;;;;;13.87;6.17;;;9.60;99.90;;;;;;5140749;27;20459;-66
2023/01/11 11:18:01;;;;;;;20.07;6.30;;;9.70;99.90;;;;;;5140864;27;20463;-66
2023/01/11 11:20:33;;;;;;;17.17;6.80;;;9.50;99.90;;;;;;5139359;27;20462;-66
2023/01/11 11:23:01;;;;;;;11.73;5.50;;;9.60;99.90;;;;;;5138690;27;20444;-66
2023/01/11 11:25:31;;;;;;;19.97;6.43;;;9.60;99.90;;;;;;5138991;27;20763;-66
2023/01/11 11:28:03;;;;;;;16.10;5.93;;;9.60;99.90;;;;;;5139009;27;20467;-66
2023/01/11 11:30:33;;;;;;;16.20;6.23;;;9.60;99.90;;;;;;5137769;27;20488;-66
2023/01/11 11:33:03;;;;;;;19.20;6.90;;;9.50;99.90;;;;;;5138943;27;20471;-66
2023/01/11 11:35:33;;;;;;;9.30;6.27;;;9.50;99.90;;;;;;5140536;27;20879;-66
2023/01/11 11:38:00;;;;;;;14.60;7.00;;;9.50;99.90;;;;;;5140749;27;20462;-66
2023/01/11 11:40:30;;;;;;;24.33;8.57;;;9.50;99.90;;;;;;5140033;27;20508;-66
2023/01/11 11:43:19;;;;;;;19.63;6.90;;;9.50;99.90;;;;;;5139984;27;20459;-66
2023/01/11 11:45:54;;;;;;;15.17;7.77;;;9.50;99.90;;;;;;5140432;27;20766;-67
2023/01/11 11:48:23;;;;;;;19.87;9.10;;;9.50;99.90;;;;;;5140394;27;20867;-66
2023/01/11 11:50:53;;;;;;;16.20;7.37;;;9.50;99.90;;;;;;5139995;27;20490;-66
2023/01/11 11:53:34;;;;;;;16.13;8.37;;;9.60;99.90;;;;;;5139430;27;20463;-66
2023/01/11 11:56:07;;;;;;;21.30;9.23;;;9.70;99.90;;;;;;5139018;27;20497;-66
2023/01/11 11:58:35;;;;;;;15.53;7.67;;;10.30;99.90;;;;;;5140226;27;20457;-67
2023/01/11 12:01:06;;;;;;;16.70;8.87;;;10.90;99.90;;;;;;5139931;27;20455;-65
2023/01/11 12:03:34;;;;;;;14.47;8.13;;;11.00;99.90;;;;;;5140280;27;20797;-65
2023/01/11 12:06:06;;;;;;;11.90;7.30;;;10.70;99.90;;;;;;5138430;27;20454;-64
2023/01/11 12:08:36;;;;;;;15.03;7.07;;;10.40;99.90;;;;;;5140075;27;20437;-65
2023/01/11 12:11:05;;;;;;;14.00;7.73;;;10.20;99.90;;;;;;5139604;27;20960;-65
2023/01/11 12:13:34;;;;;;;17.47;7.80;;;9.90;99.90;;;;;;5138335;27;20556;-65
2023/01/11 12:16:04;;;;;;;15.73;7.50;;;9.80;99.90;;;;;;5138344;27;20463;-64
2023/01/11 12:18:40;;;;;;;19.20;9.10;;;9.60;99.90;;;;;;5138706;27;20455;-64
2023/01/11 12:21:28;;;;;;;18.87;8.43;;;9.50;99.90;;;;;;5138770;27;20450;-64
2023/01/11 12:24:10;;;;;;;14.60;7.27;;;9.50;99.90;;;;;;5139214;27;20530;-64
2023/01/11 12:26:45;;;;;;;18.93;9.07;;;9.40;99.90;;;;;;5139448;27;20462;-64
2023/01/11 12:29:46;;;;;;;14.60;7.60;;;9.30;99.90;;;;;;5138669;27;20458;-64
2023/01/11 12:32:31;;;;;;;15.00;7.13;;;9.30;99.90;;;;;;5138775;27;20936;-64
2023/01/11 12:35:20;;;;;;;11.23;6.83;;;9.30;99.90;;;;;;5136998;27;20458;-64
2023/01/11 12:38:10;;;;;;;18.90;6.20;;;9.10;99.90;;;;;;5137860;27;20737;-64
2023/01/11 12:40:51;;;;;;;16.60;6.50;;;9.10;99.90;;;;;;5134831;27;20445;-64
2023/01/11 12:43:31;;;;;;;15.63;6.60;;;9.10;99.90;;;;;;5135164;27;20923;-67
2023/01/11 12:46:08;;;;;;;13.80;6.77;;;9.40;99.90;;;;;;5125488;27;20467;-67
2023/01/11 12:49:00;;;;;;;19.43;6.07;;;9.80;99.90;;;;;;5126517;27;20462;-67
2023/01/11 12:51:47;;;;;;;14.67;5.93;;;10.10;99.90;;;;;;5125194;27;20478;-66
2023/01/11 12:54:39;;;;;;;9.03;5.03;;;10.40;99.90;;;;;;5132110;27;20479;-66
2023/01/11 12:57:18;;;;;;;11.73;4.40;;;10.30;99.90;;;;;;5126347;27;20489;-66
2023/01/11 13:00:18;;;;;;;11.87;4.00;;;10.40;99.90;;;;;;5138234;27;20863;-66
2023/01/11 13:03:05;;;;;;;10.77;3.80;;;10.40;99.90;;;;;;5127938;27;20643;-67
2023/01/11 13:05:38;;;;;;;15.23;4.57;;;10.30;1.00;;;;;;5131345;27;20471;-66
2023/01/11 13:08:12;;;;;;;14.77;5.40;;;10.30;99.90;;;;;;5126742;27;20771;-66
2023/01/11 13:10:55;;;;;;;14.37;6.27;;;10.30;99.90;;;;;;5131390;27;20463;-66
2023/01/11 13:13:28;;;;;;;8.50;4.30;;;10.20;43.40;;;;;;5132743;27;20524;-66
2023/01/11 13:16:02;;;;;;;9.40;5.03;;;10.30;99.90;;;;;;5132908;27;20480;-66
2023/01/11 13:18:38;;;;;;;14.70;4.63;;;10.40;99.90;;;;;;5135422;27;20465;-66
2023/01/11 13:21:16;;;;;;;15.43;7.20;;;10.40;99.90;;;;;;5136270;27;20442;-66
2023/01/11 13:23:47;;;;;;;8.90;4.40;;;10.50;92.50;;;;;;5136602;27;20432;-66
2023/01/11 13:26:22;;;;;;;12.43;4.47;;;10.30;1.00;;;;;;5136596;27;20457;-64
2023/01/11 13:28:54;;;;;;;13.00;4.70;;;10.00;1.00;;;;;;5136537;27;20894;-63
2023/01/11 13:31:23;;;;;;;16.93;5.30;;;9.90;1.00;;;;;;5135714;27;20556;-63
2023/01/11 13:33:57;;;;;;;15.07;5.43;;;9.70;1.00;;;;;;5132694;27;20767;-64
2023/01/11 13:36:27;;;;;;;14.17;4.53;;;9.60;1.00;;;;;;5118483;27;20467;-63